Hai Yang Shi You 708 — BFDL — position and weather

sailwx.info

Track history (hours):
 
Tides and Currents Weather Stations Pressure Air Temp Water Temp Dewpoint Dewpoint Depression Visibility Wind Speed Wind Dir Waves Ship Positions

Hai Yang Shi You 708

Last reported at 2014-Nov-02 08:31 UTC. Time now 2014-Nov-24 08:01 UTC.
Position N 22°19' E 114°05'.
Warning: this ship's position is 21 days out of date.

Length 105 m; draft 7 m.

Type: Other ship. MMSI: 413303010.

Date/timePositionNaut miles runAvg speedWind from/ knotsBaromVisibWave heightAir tempDewpointWater temp
2014-Nov-02 08:31N 22°19' E 114°05'10 8.2
2014-Nov-02 07:19N 22°22' E 113°55'6 7.6
2014-Nov-02 06:33N 22°27' E 113°53'1 1.2
2014-Nov-02 05:27N 22°29' E 113°53'0 0.0
2014-Nov-02 04:33N 22°29' E 113°53'0 0.0
2014-Nov-02 03:33N 22°29' E 113°53'0 0.0
2014-Nov-02 02:09N 22°29' E 113°53'0 0.0
2014-Nov-02 01:27N 22°29' E 113°53'0 0.0
2014-Nov-02 00:21N 22°29' E 113°53'0 0.0
2014-Nov-01 23:27N 22°29' E 113°53'0 0.0
2014-Nov-01 22:21N 22°29' E 113°53'0 0.0
2014-Nov-01 21:15N 22°29' E 113°53'0 0.0
2014-Nov-01 20:33N 22°29' E 113°53'0 0.0
2014-Nov-01 19:33N 22°29' E 113°53'0 0.0
2014-Nov-01 18:21N 22°29' E 113°53'0 0.0
2014-Nov-01 17:27N 22°29' E 113°53'0 0.0
2014-Nov-01 16:33N 22°29' E 113°53'0 0.0
2014-Nov-01 15:21N 22°29' E 113°53'0 0.0
2014-Nov-01 14:15N 22°29' E 113°53'0 0.0
2014-Nov-01 13:15N 22°29' E 113°53'0 0.0
2014-Nov-01 12:33N 22°29' E 113°53'0 0.0
2014-Nov-01 11:33N 22°29' E 113°53'0 0.0
2014-Nov-01 10:21N 22°29' E 113°53'0 0.0
2014-Nov-01 09:33N 22°29' E 113°53'0 0.0
2014-Nov-01 08:21N 22°29' E 113°53'0 0.0
2014-Nov-01 07:27N 22°29' E 113°53'0 0.0
2014-Nov-01 06:33N 22°29' E 113°53'0 0.0
2014-Nov-01 05:33N 22°29' E 113°53'0 0.0
2014-Nov-01 04:09N 22°29' E 113°53'0 0.0
2014-Nov-01 03:15N 22°29' E 113°53'0 0.0
2014-Nov-01 02:33N 22°29' E 113°53'0 0.0
2014-Nov-01 01:27N 22°29' E 113°53'0 0.0
2014-Nov-01 00:21N 22°29' E 113°53'0 0.0
2014-Oct-31 23:33N 22°29' E 113°53'0 0.0
2014-Oct-31 22:21N 22°29' E 113°53'0 0.0
2014-Oct-31 21:09N 22°29' E 113°53'0 0.0
2014-Oct-31 20:27N 22°29' E 113°53'0 0.0
2014-Oct-31 19:27N 22°29' E 113°53'0 0.0
2014-Oct-31 18:21N 22°29' E 113°53'0 0.0
2014-Oct-31 17:09N 22°29' E 113°53'0 0.0
2014-Oct-31 16:33N 22°29' E 113°53'0 0.0
2014-Oct-31 15:33N 22°29' E 113°53'0 0.0
2014-Oct-31 14:09N 22°29' E 113°53'0 0.0
2014-Oct-31 13:21N 22°29' E 113°53'0 0.0
2014-Oct-31 12:21N 22°29' E 113°53'0 0.0
2014-Oct-31 11:33N 22°29' E 113°53'0 0.0
2014-Oct-31 10:33N 22°29' E 113°53'0 0.0
2014-Oct-31 09:33N 22°29' E 113°53'0 0.0
2014-Oct-31 08:33N 22°29' E 113°53'0 0.0
2014-Oct-31 07:33N 22°29' E 113°53'0 0.0
2014-Oct-31 06:33N 22°29' E 113°53'0 0.0
2014-Oct-31 05:33N 22°29' E 113°53'0 0.0
2014-Oct-31 04:33N 22°29' E 113°53'0 0.0
2014-Oct-31 03:33N 22°29' E 113°53'2 2.1
2014-Oct-31 02:33N 22°27' E 113°53'2 1.6
2014-Oct-31 01:28N 22°28' E 113°54'0 0.0
2014-Oct-31 00:28N 22°28' E 113°54'0 0.0
2014-Oct-30 23:22N 22°28' E 113°54'0 0.0
2014-Oct-30 21:28N 22°28' E 113°54'0 0.0
2014-Oct-30 20:28N 22°28' E 113°54'0 0.0
2014-Oct-30 18:28N 22°28' E 113°54'0 0.0
2014-Oct-30 17:10N 22°28' E 113°54'0 0.0
2014-Oct-30 16:16N 22°28' E 113°54'0 0.0
2014-Oct-30 15:28N 22°28' E 113°54'0 0.0
2014-Oct-30 14:04N 22°28' E 113°54'0 0.0
2014-Oct-30 13:28N 22°28' E 113°54'0 0.0
2014-Oct-30 11:16N 22°28' E 113°54'0 0.0
2014-Oct-30 10:16N 22°28' E 113°54'0 0.0
2014-Oct-30 09:28N 22°28' E 113°54'0 0.0
2014-Oct-30 08:28N 22°28' E 113°54'0 0.0
2014-Oct-30 07:28N 22°28' E 113°54'0 0.0
2014-Oct-30 06:28N 22°28' E 113°54'0 0.0
2014-Oct-30 05:28N 22°28' E 113°54'0 0.0
2014-Oct-30 04:22N 22°28' E 113°54'0 0.0
2014-Oct-30 03:28N 22°28' E 113°54'0 0.0
2014-Oct-30 02:16N 22°28' E 113°54'0 0.0
2014-Oct-30 01:28N 22°28' E 113°54'0 0.0
2014-Oct-30 00:28N 22°28' E 113°54'0 0.0
2014-Oct-29 23:28N 22°28' E 113°54'0 0.0
2014-Oct-29 22:28N 22°28' E 113°54'0 0.0
2014-Oct-29 21:28N 22°28' E 113°54'0 0.0
2014-Oct-29 20:28N 22°28' E 113°54'0 0.0
2014-Oct-29 19:22N 22°28' E 113°54'0 0.0
2014-Oct-29 18:28N 22°28' E 113°54'0 0.0
2014-Oct-29 17:28N 22°28' E 113°54'0 0.0
2014-Oct-29 16:28N 22°28' E 113°54'0 0.0
2014-Oct-29 15:22N 22°28' E 113°54'0 0.0
2014-Oct-29 14:22N 22°28' E 113°54'0 0.0
2014-Oct-29 13:28N 22°28' E 113°54'0 0.0
2014-Oct-29 12:28N 22°28' E 113°54'0 0.0
2014-Oct-29 11:28N 22°28' E 113°54'0 0.0
2014-Oct-29 10:28N 22°28' E 113°54'0 0.0
2014-Oct-29 09:22N 22°28' E 113°54'0 0.0
2014-Oct-29 08:28N 22°28' E 113°54'0 0.0
2014-Oct-29 07:28N 22°28' E 113°54'0 0.0
2014-Oct-29 06:28N 22°28' E 113°54'0 0.0
2014-Oct-29 05:28N 22°28' E 113°54'0 0.0
2014-Oct-29 04:28N 22°28' E 113°54'0 0.0
2014-Oct-29 03:28N 22°28' E 113°54'0 0.0
2014-Oct-29 02:28N 22°28' E 113°54'0 0.0
2014-Oct-29 01:28N 22°28' E 113°54'0 0.0
2014-Oct-29 00:28N 22°28' E 113°54'0 0.0
2014-Oct-28 23:28N 22°28' E 113°54'0 0.0
2014-Oct-28 22:28N 22°28' E 113°54'0 0.0
2014-Oct-28 21:28N 22°28' E 113°54'0 0.0
2014-Oct-28 20:28N 22°28' E 113°54'0 0.0
2014-Oct-28 19:28N 22°28' E 113°54'0 0.0
2014-Oct-28 18:22N 22°28' E 113°54'0 0.0
2014-Oct-28 17:28N 22°28' E 113°54'0 0.0
2014-Oct-28 16:28N 22°28' E 113°54'0 0.0
2014-Oct-28 15:28N 22°28' E 113°54'0 0.0
2014-Oct-28 13:28N 22°28' E 113°54'0 0.0
2014-Oct-28 12:28N 22°28' E 113°54'0 0.0
2014-Oct-28 11:28N 22°28' E 113°54'0 0.0
2014-Oct-28 10:28N 22°28' E 113°54'0 0.0
2014-Oct-28 09:28N 22°28' E 113°54'0 0.0
2014-Oct-28 08:28N 22°28' E 113°54'0 0.0
2014-Oct-28 07:31N 22°28' E 113°54'0 0.0
2014-Oct-28 06:31N 22°28' E 113°54'0 0.0
2014-Oct-28 05:31N 22°28' E 113°54'0 0.0
2014-Oct-28 04:31N 22°28' E 113°54'0 0.0
2014-Oct-28 03:04N 22°28' E 113°54'0 0.0
2014-Oct-28 02:31N 22°28' E 113°54'0 0.0
2014-Oct-28 01:31N 22°28' E 113°54'0 0.0
2014-Oct-28 00:31N 22°28' E 113°54'0 0.0
2014-Oct-27 23:31N 22°28' E 113°54'0 0.0
2014-Oct-27 22:25N 22°28' E 113°54'0 0.0
2014-Oct-27 21:25N 22°28' E 113°54'0 0.0
2014-Oct-27 20:25N 22°28' E 113°54'0 0.0
2014-Oct-27 19:31N 22°28' E 113°54'0 0.0
2014-Oct-27 18:31N 22°28' E 113°54'0 0.0
2014-Oct-27 17:31N 22°28' E 113°54'0 0.0
2014-Oct-27 16:31N 22°28' E 113°54'0 0.0
2014-Oct-27 15:31N 22°28' E 113°54'0 0.0
2014-Oct-27 14:31N 22°28' E 113°54'0 0.0
2014-Oct-27 13:31N 22°28' E 113°54'0 0.0
2014-Oct-27 12:31N 22°28' E 113°54'0 0.0
2014-Oct-27 11:31N 22°28' E 113°54'0 0.0
2014-Oct-27 10:31N 22°28' E 113°54'0 0.0
2014-Oct-27 09:28N 22°28' E 113°54'0 0.0
2014-Oct-27 08:31N 22°28' E 113°54'0 0.0
2014-Oct-27 07:31N 22°28' E 113°54'0 0.0
2014-Oct-27 06:31N 22°28' E 113°54'0 0.0
2014-Oct-27 05:31N 22°28' E 113°54'0 0.0
2014-Oct-27 04:31N 22°28' E 113°54'0 0.0
2014-Oct-27 03:34N 22°28' E 113°54'0 0.1
2014-Oct-27 02:34N 22°28' E 113°54'2 2.0
2014-Oct-27 01:33N 22°27' E 113°52'0 0.0
2014-Oct-27 00:26N 22°27' E 113°52'0 0.0
2014-Oct-26 23:23N 22°27' E 113°52'0 0.1
2014-Oct-26 22:23N 22°27' E 113°52'0 0.0
2014-Oct-26 14:32N 22°27' E 113°52'0 0.0
2014-Oct-26 12:26N 22°27' E 113°52'0 0.0
2014-Oct-26 11:29N 22°27' E 113°52'0 0.0
2014-Oct-26 09:23N 22°27' E 113°52'0 0.0
2014-Oct-26 08:05N 22°27' E 113°52'0 0.0
2014-Oct-26 00:11N 22°27' E 113°52'0 0.1
2014-Oct-25 23:29N 22°27' E 113°52'0 0.0
2014-Oct-25 20:23N 22°27' E 113°52'0 0.0
2014-Oct-25 17:14N 22°27' E 113°52'0 0.0
2014-Oct-25 15:29N 22°27' E 113°52'0 0.0
2014-Oct-25 14:32N 22°27' E 113°52'0 0.0
2014-Oct-25 11:29N 22°27' E 113°52'0 0.0
2014-Oct-25 09:26N 22°27' E 113°52'0 0.0
2014-Oct-24 15:29N 22°27' E 113°52'0 0.0
2014-Oct-24 12:29N 22°27' E 113°52'0 0.0
2014-Oct-24 09:32N 22°27' E 113°52'0 0.0
2014-Oct-24 08:20N 22°27' E 113°52'0 0.0
2014-Oct-24 07:32N 22°27' E 113°52'0 0.0
2014-Oct-24 06:32N 22°27' E 113°52'0 0.0
2014-Oct-24 05:26N 22°27' E 113°52'0 0.0
2014-Oct-24 04:32N 22°27' E 113°52'0 0.0
2014-Oct-24 03:32N 22°27' E 113°52'0 0.0
2014-Oct-24 02:32N 22°27' E 113°52'0 0.0
2014-Oct-24 01:26N 22°27' E 113°52'0 0.0
2014-Oct-24 00:26N 22°27' E 113°52'0 0.0
2014-Oct-23 17:23N 22°27' E 113°52'0 0.0
2014-Oct-23 16:26N 22°27' E 113°52'0 0.0
2014-Oct-23 15:23N 22°27' E 113°52'0 0.0
2014-Oct-23 14:05N 22°27' E 113°52'0 0.0
2014-Oct-23 13:23N 22°27' E 113°52'0 0.0
2014-Oct-23 12:23N 22°27' E 113°52'0 0.0
2014-Oct-23 09:26N 22°27' E 113°52'  
Track history (hours):
 
Tides and Currents Weather Stations Pressure Air Temp Water Temp Dewpoint Dewpoint Depression Visibility Wind Speed Wind Dir Waves Ship Positions

Hai Yang Shi You 708

Last reported at 2014-Nov-02 08:31 UTC. Time now 2014-Nov-24 08:01 UTC.
Position N 22°19' E 114°05'.
Warning: this ship's position is 21 days out of date.

Length 105 m; draft 7 m.

Type: Other ship. MMSI: 413303010.

Date/timePositionNaut miles runAvg speedWind from/ knotsBaromVisibWave heightAir tempDewpointWater temp
2014-Nov-02 08:31N 22°19' E 114°05'10 8.2
2014-Nov-02 07:19N 22°22' E 113°55'6 7.6
2014-Nov-02 06:33N 22°27' E 113°53'1 1.2
2014-Nov-02 05:27N 22°29' E 113°53'0 0.0
2014-Nov-02 04:33N 22°29' E 113°53'0 0.0
2014-Nov-02 03:33N 22°29' E 113°53'0 0.0
2014-Nov-02 02:09N 22°29' E 113°53'0 0.0
2014-Nov-02 01:27N 22°29' E 113°53'0 0.0
2014-Nov-02 00:21N 22°29' E 113°53'0 0.0
2014-Nov-01 23:27N 22°29' E 113°53'0 0.0
2014-Nov-01 22:21N 22°29' E 113°53'0 0.0
2014-Nov-01 21:15N 22°29' E 113°53'0 0.0
2014-Nov-01 20:33N 22°29' E 113°53'0 0.0
2014-Nov-01 19:33N 22°29' E 113°53'0 0.0
2014-Nov-01 18:21N 22°29' E 113°53'0 0.0
2014-Nov-01 17:27N 22°29' E 113°53'0 0.0
2014-Nov-01 16:33N 22°29' E 113°53'0 0.0
2014-Nov-01 15:21N 22°29' E 113°53'0 0.0
2014-Nov-01 14:15N 22°29' E 113°53'0 0.0
2014-Nov-01 13:15N 22°29' E 113°53'0 0.0
2014-Nov-01 12:33N 22°29' E 113°53'0 0.0
2014-Nov-01 11:33N 22°29' E 113°53'0 0.0
2014-Nov-01 10:21N 22°29' E 113°53'0 0.0
2014-Nov-01 09:33N 22°29' E 113°53'0 0.0
2014-Nov-01 08:21N 22°29' E 113°53'0 0.0
2014-Nov-01 07:27N 22°29' E 113°53'0 0.0
2014-Nov-01 06:33N 22°29' E 113°53'0 0.0
2014-Nov-01 05:33N 22°29' E 113°53'0 0.0
2014-Nov-01 04:09N 22°29' E 113°53'0 0.0
2014-Nov-01 03:15N 22°29' E 113°53'0 0.0
2014-Nov-01 02:33N 22°29' E 113°53'0 0.0
2014-Nov-01 01:27N 22°29' E 113°53'0 0.0
2014-Nov-01 00:21N 22°29' E 113°53'0 0.0
2014-Oct-31 23:33N 22°29' E 113°53'0 0.0
2014-Oct-31 22:21N 22°29' E 113°53'0 0.0
2014-Oct-31 21:09N 22°29' E 113°53'0 0.0
2014-Oct-31 20:27N 22°29' E 113°53'0 0.0
2014-Oct-31 19:27N 22°29' E 113°53'0 0.0
2014-Oct-31 18:21N 22°29' E 113°53'0 0.0
2014-Oct-31 17:09N 22°29' E 113°53'0 0.0
2014-Oct-31 16:33N 22°29' E 113°53'0 0.0
2014-Oct-31 15:33N 22°29' E 113°53'0 0.0
2014-Oct-31 14:09N 22°29' E 113°53'0 0.0
2014-Oct-31 13:21N 22°29' E 113°53'0 0.0
2014-Oct-31 12:21N 22°29' E 113°53'0 0.0
2014-Oct-31 11:33N 22°29' E 113°53'0 0.0
2014-Oct-31 10:33N 22°29' E 113°53'0 0.0
2014-Oct-31 09:33N 22°29' E 113°53'0 0.0
2014-Oct-31 08:33N 22°29' E 113°53'0 0.0
2014-Oct-31 07:33N 22°29' E 113°53'0 0.0
2014-Oct-31 06:33N 22°29' E 113°53'0 0.0
2014-Oct-31 05:33N 22°29' E 113°53'0 0.0
2014-Oct-31 04:33N 22°29' E 113°53'0 0.0
2014-Oct-31 03:33N 22°29' E 113°53'2 2.1
2014-Oct-31 02:33N 22°27' E 113°53'2 1.6
2014-Oct-31 01:28N 22°28' E 113°54'0 0.0
2014-Oct-31 00:28N 22°28' E 113°54'0 0.0
2014-Oct-30 23:22N 22°28' E 113°54'0 0.0
2014-Oct-30 21:28N 22°28' E 113°54'0 0.0
2014-Oct-30 20:28N 22°28' E 113°54'0 0.0
2014-Oct-30 18:28N 22°28' E 113°54'0 0.0
2014-Oct-30 17:10N 22°28' E 113°54'0 0.0
2014-Oct-30 16:16N 22°28' E 113°54'0 0.0
2014-Oct-30 15:28N 22°28' E 113°54'0 0.0
2014-Oct-30 14:04N 22°28' E 113°54'0 0.0
2014-Oct-30 13:28N 22°28' E 113°54'0 0.0
2014-Oct-30 11:16N 22°28' E 113°54'0 0.0
2014-Oct-30 10:16N 22°28' E 113°54'0 0.0
2014-Oct-30 09:28N 22°28' E 113°54'0 0.0
2014-Oct-30 08:28N 22°28' E 113°54'0 0.0
2014-Oct-30 07:28N 22°28' E 113°54'0 0.0
2014-Oct-30 06:28N 22°28' E 113°54'0 0.0
2014-Oct-30 05:28N 22°28' E 113°54'0 0.0
2014-Oct-30 04:22N 22°28' E 113°54'0 0.0
2014-Oct-30 03:28N 22°28' E 113°54'0 0.0
2014-Oct-30 02:16N 22°28' E 113°54'0 0.0
2014-Oct-30 01:28N 22°28' E 113°54'0 0.0
2014-Oct-30 00:28N 22°28' E 113°54'0 0.0
2014-Oct-29 23:28N 22°28' E 113°54'0 0.0
2014-Oct-29 22:28N 22°28' E 113°54'0 0.0
2014-Oct-29 21:28N 22°28' E 113°54'0 0.0
2014-Oct-29 20:28N 22°28' E 113°54'0 0.0
2014-Oct-29 19:22N 22°28' E 113°54'0 0.0
2014-Oct-29 18:28N 22°28' E 113°54'0 0.0
2014-Oct-29 17:28N 22°28' E 113°54'0 0.0
2014-Oct-29 16:28N 22°28' E 113°54'0 0.0
2014-Oct-29 15:22N 22°28' E 113°54'0 0.0
2014-Oct-29 14:22N 22°28' E 113°54'0 0.0
2014-Oct-29 13:28N 22°28' E 113°54'0 0.0
2014-Oct-29 12:28N 22°28' E 113°54'0 0.0
2014-Oct-29 11:28N 22°28' E 113°54'0 0.0
2014-Oct-29 10:28N 22°28' E 113°54'0 0.0
2014-Oct-29 09:22N 22°28' E 113°54'0 0.0
2014-Oct-29 08:28N 22°28' E 113°54'0 0.0
2014-Oct-29 07:28N 22°28' E 113°54'0 0.0
2014-Oct-29 06:28N 22°28' E 113°54'0 0.0
2014-Oct-29 05:28N 22°28' E 113°54'0 0.0
2014-Oct-29 04:28N 22°28' E 113°54'0 0.0
2014-Oct-29 03:28N 22°28' E 113°54'0 0.0
2014-Oct-29 02:28N 22°28' E 113°54'0 0.0
2014-Oct-29 01:28N 22°28' E 113°54'0 0.0
2014-Oct-29 00:28N 22°28' E 113°54'0 0.0
2014-Oct-28 23:28N 22°28' E 113°54'0 0.0
2014-Oct-28 22:28N 22°28' E 113°54'0 0.0
2014-Oct-28 21:28N 22°28' E 113°54'0 0.0
2014-Oct-28 20:28N 22°28' E 113°54'0 0.0
2014-Oct-28 19:28N 22°28' E 113°54'0 0.0
2014-Oct-28 18:22N 22°28' E 113°54'0 0.0
2014-Oct-28 17:28N 22°28' E 113°54'0 0.0
2014-Oct-28 16:28N 22°28' E 113°54'0 0.0
2014-Oct-28 15:28N 22°28' E 113°54'0 0.0
2014-Oct-28 13:28N 22°28' E 113°54'0 0.0
2014-Oct-28 12:28N 22°28' E 113°54'0 0.0
2014-Oct-28 11:28N 22°28' E 113°54'0 0.0
2014-Oct-28 10:28N 22°28' E 113°54'0 0.0
2014-Oct-28 09:28N 22°28' E 113°54'0 0.0
2014-Oct-28 08:28N 22°28' E 113°54'0 0.0
2014-Oct-28 07:31N 22°28' E 113°54'0 0.0
2014-Oct-28 06:31N 22°28' E 113°54'0 0.0
2014-Oct-28 05:31N 22°28' E 113°54'0 0.0
2014-Oct-28 04:31N 22°28' E 113°54'0 0.0
2014-Oct-28 03:04N 22°28' E 113°54'0 0.0
2014-Oct-28 02:31N 22°28' E 113°54'0 0.0
2014-Oct-28 01:31N 22°28' E 113°54'0 0.0
2014-Oct-28 00:31N 22°28' E 113°54'0 0.0
2014-Oct-27 23:31N 22°28' E 113°54'0 0.0
2014-Oct-27 22:25N 22°28' E 113°54'0 0.0
2014-Oct-27 21:25N 22°28' E 113°54'0 0.0
2014-Oct-27 20:25N 22°28' E 113°54'0 0.0
2014-Oct-27 19:31N 22°28' E 113°54'0 0.0
2014-Oct-27 18:31N 22°28' E 113°54'0 0.0
2014-Oct-27 17:31N 22°28' E 113°54'0 0.0
2014-Oct-27 16:31N 22°28' E 113°54'0 0.0
2014-Oct-27 15:31N 22°28' E 113°54'0 0.0
2014-Oct-27 14:31N 22°28' E 113°54'0 0.0
2014-Oct-27 13:31N 22°28' E 113°54'0 0.0
2014-Oct-27 12:31N 22°28' E 113°54'0 0.0
2014-Oct-27 11:31N 22°28' E 113°54'0 0.0
2014-Oct-27 10:31N 22°28' E 113°54'0 0.0
2014-Oct-27 09:28N 22°28' E 113°54'0 0.0
2014-Oct-27 08:31N 22°28' E 113°54'0 0.0
2014-Oct-27 07:31N 22°28' E 113°54'0 0.0
2014-Oct-27 06:31N 22°28' E 113°54'0 0.0
2014-Oct-27 05:31N 22°28' E 113°54'0 0.0
2014-Oct-27 04:31N 22°28' E 113°54'0 0.0
2014-Oct-27 03:34N 22°28' E 113°54'0 0.1
2014-Oct-27 02:34N 22°28' E 113°54'2 2.0
2014-Oct-27 01:33N 22°27' E 113°52'0 0.0
2014-Oct-27 00:26N 22°27' E 113°52'0 0.0
2014-Oct-26 23:23N 22°27' E 113°52'0 0.1
2014-Oct-26 22:23N 22°27' E 113°52'0 0.0
2014-Oct-26 14:32N 22°27' E 113°52'0 0.0
2014-Oct-26 12:26N 22°27' E 113°52'0 0.0
2014-Oct-26 11:29N 22°27' E 113°52'0 0.0
2014-Oct-26 09:23N 22°27' E 113°52'0 0.0
2014-Oct-26 08:05N 22°27' E 113°52'0 0.0
2014-Oct-26 00:11N 22°27' E 113°52'0 0.1
2014-Oct-25 23:29N 22°27' E 113°52'0 0.0
2014-Oct-25 20:23N 22°27' E 113°52'0 0.0
2014-Oct-25 17:14N 22°27' E 113°52'0 0.0
2014-Oct-25 15:29N 22°27' E 113°52'0 0.0
2014-Oct-25 14:32N 22°27' E 113°52'0 0.0
2014-Oct-25 11:29N 22°27' E 113°52'0 0.0
2014-Oct-25 09:26N 22°27' E 113°52'0 0.0
2014-Oct-24 15:29N 22°27' E 113°52'0 0.0
2014-Oct-24 12:29N 22°27' E 113°52'0 0.0
2014-Oct-24 09:32N 22°27' E 113°52'0 0.0
2014-Oct-24 08:20N 22°27' E 113°52'0 0.0
2014-Oct-24 07:32N 22°27' E 113°52'0 0.0
2014-Oct-24 06:32N 22°27' E 113°52'0 0.0
2014-Oct-24 05:26N 22°27' E 113°52'0 0.0
2014-Oct-24 04:32N 22°27' E 113°52'0 0.0
2014-Oct-24 03:32N 22°27' E 113°52'0 0.0
2014-Oct-24 02:32N 22°27' E 113°52'0 0.0
2014-Oct-24 01:26N 22°27' E 113°52'0 0.0
2014-Oct-24 00:26N 22°27' E 113°52'0 0.0
2014-Oct-23 17:23N 22°27' E 113°52'0 0.0
2014-Oct-23 16:26N 22°27' E 113°52'0 0.0
2014-Oct-23 15:23N 22°27' E 113°52'0 0.0
2014-Oct-23 14:05N 22°27' E 113°52'0 0.0
2014-Oct-23 13:23N 22°27' E 113°52'0 0.0
2014-Oct-23 12:23N 22°27' E 113°52'0 0.0
2014-Oct-23 09:26N 22°27' E 113°52'  

Dump ship's entire track history